Time;durP1;ratioP1;P1;durP2;ratioP2;P2;SDS_P1;SDS_P2;PMS_P1;PMS_P2;Temp;Humidity;BMP_temperature;BMP_pressure;BME280_temperature;BME280_humidity;BME280_pressure;Samples;Min_cycle;Max_cycle;Signal;HPM_P1;HPM_P2
2023/01/03 00:00:04;;;;;;;33.30;23.00;;;;;;;9.28;69.79;99593.67;234763;1198;139358;-65
2023/01/03 00:05:29;;;;;;;33.70;22.70;;;;;;;9.25;69.64;99598.22;234672;1195;139530;-69
2023/01/03 00:11:10;;;;;;;31.80;22.20;;;;;;;9.19;69.75;99604.17;234730;1195;140329;-72
2023/01/03 00:16:48;;;;;;;32.10;22.70;;;;;;;9.07;70.00;99613.96;234821;1195;139283;-70
2023/01/03 00:22:35;;;;;;;;;;;;;;;8.99;70.26;99605.63;234832;1196;139466;-69
2023/01/03 00:28:25;;;;;;;32.70;21.50;;;;;;;9.00;70.19;99606.45;234789;1195;125676;-70
2023/01/03 00:33:54;;;;;;;;;;;;;;;;;;;;;
2023/01/03 00:39:11;;;;;;;;;;;;;;;;;;;;;
2023/01/03 00:45:15;;;;;;;;;;;;;;;;;;;;;
2023/01/03 00:51:33;;;;;;;30.80;20.70;;;;;;;9.17;70.42;99620.55;234630;1199;140360;-68
2023/01/03 00:57:21;;;;;;;29.70;19.70;;;;;;;9.23;70.12;99633.35;234642;1197;140179;-69
2023/01/03 01:03:35;;;;;;;;;;;;;;;;;;;;;
2023/01/03 01:10:01;;;;;;;;;;;;;;;;;;;;;
2023/01/03 01:16:03;;;;;;;;;;;;;;;;;;;;;
2023/01/03 01:22:29;;;;;;;28.60;19.60;;;;;;;9.34;69.56;99644.20;234553;1195;139712;-71
2023/01/03 01:28:37;;;;;;;;;;;;;;;;;;;;;
2023/01/03 01:34:22;;;;;;;30.50;19.20;;;;;;;9.20;69.74;99653.53;234625;1196;139102;-68
2023/01/03 01:40:39;;;;;;;27.60;19.60;;;;;;;9.13;69.58;99658.80;234787;1196;138980;-69
2023/01/03 01:47:03;;;;;;;25.50;17.90;;;;;;;9.08;69.78;99660.65;234491;1195;139907;-70
2023/01/03 01:52:58;;;;;;;;;;;;;;;;;;;;;
2023/01/03 01:59:15;;;;;;;;;;;;;;;;;;;;;
2023/01/03 02:05:17;;;;;;;25.30;16.60;;;;;;;9.15;69.34;99656.94;234613;1196;140038;-72
2023/01/03 02:11:34;;;;;;;23.00;16.30;;;;;;;9.10;69.50;99658.39;234726;1196;139234;-69
2023/01/03 02:18:07;;;;;;;22.00;15.70;;;;;;;9.15;69.66;99654.84;234527;1196;139123;-70
2023/01/03 02:24:00;;;;;;;23.90;16.30;;;;;;;9.13;69.76;99652.77;234683;1198;139584;-67
2023/01/03 02:30:24;;;;;;;21.10;14.90;;;;;;;9.14;69.66;99654.70;234811;1196;139811;-69
2023/01/03 02:36:50;;;;;;;24.00;16.80;;;;;;;9.14;69.52;99661.59;234810;1196;139805;-69
2023/01/03 02:43:05;;;;;;;28.60;18.00;;;;;;;9.08;69.57;99670.53;234748;1195;139526;-69
2023/01/03 02:48:57;;;;;;;;;;;;;;;;;;;;;
2023/01/03 02:55:19;;;;;;;;;;;;;;;;;;;;;
2023/01/03 03:01:24;;;;;;;;;;;;;;;;;;;;;
2023/01/03 03:07:48;;;;;;;;;;;;;;;;;;;;;
2023/01/03 03:14:16;;;;;;;18.20;12.90;;;;;;;9.12;69.66;99683.11;234801;1196;140011;-70
2023/01/03 03:26:25;;;;;;;18.40;12.80;;;;;;;9.18;69.42;99694.69;234583;1196;140778;-70
2023/01/03 03:32:51;;;;;;;15.30;12.10;;;;;;;9.22;69.19;99703.91;234657;1196;139284;-66
2023/01/03 03:38:31;;;;;;;16.10;11.60;;;;;;;9.16;69.28;99729.10;234834;1196;139731;-66
2023/01/03 03:50:47;;;;;;;21.30;15.20;;;;;;;9.23;69.67;99737.50;234685;1196;141125;-65
2023/01/03 03:56:46;;;;;;;15.20;10.50;;;;;;;9.42;69.55;99746.16;234581;1196;139570;-68
2023/01/03 04:02:48;;;;;;;;;;;;;;;;;;;;;
2023/01/03 04:08:39;;;;;;;54.60;37.90;;;;;;;9.56;69.28;99767.17;234613;1195;139626;-66
2023/01/03 04:14:53;;;;;;;;;;;;;;;;;;;;;
2023/01/03 04:21:05;;;;;;;;;;;;;;;;;;;;;
2023/01/03 04:28:23;;;;;;;13.90;9.70;;;;;;;9.77;69.02;99767.39;234736;1196;139516;-64
2023/01/03 04:35:00;;;;;;;14.50;10.20;;;;;;;9.86;68.78;99776.55;234533;1196;139510;-68
2023/01/03 04:41:21;;;;;;;;;;;;;;;;;;;;;
2023/01/03 04:47:14;;;;;;;16.30;11.10;;;;;;;9.91;68.28;99799.19;234413;1196;139259;-67
2023/01/03 04:53:13;;;;;;;;;;;;;;;;;;;;;
2023/01/03 05:00:06;;;;;;;17.20;10.70;;;;;;;10.01;68.54;99806.00;234739;1195;140682;-67
2023/01/03 05:06:54;;;;;;;20.40;13.70;;;;;;;10.08;68.14;99809.16;234663;1195;139400;-65
2023/01/03 05:34:37;;;;;;;;;;;;;;;;;;;;;
2023/01/03 05:47:20;;;;;;;17.30;11.60;;;;;;;10.08;68.00;99862.20;234413;1195;142039;-65
2023/01/03 05:53:12;;;;;;;;;;;;;;;;;;;;;
2023/01/03 05:59:06;;;;;;;20.40;12.60;;;;;;;10.07;67.98;99878.55;234310;1195;139337;-66
2023/01/03 06:05:26;;;;;;;;;;;;;;;;;;;;;
2023/01/03 06:18:16;;;;;;;19.00;11.70;;;;;;;9.98;68.36;99894.42;234588;1195;139493;-66
2023/01/03 06:24:53;;;;;;;20.20;12.20;;;;;;;10.11;67.93;99901.44;234549;1195;140060;-65
2023/01/03 06:37:07;;;;;;;21.50;13.60;;;;;;;10.16;67.37;99929.04;231948;1216;636189;-66
2023/01/03 06:43:25;;;;;;;;;;;;;;;;;;;;;
2023/01/03 06:55:22;;;;;;;;;;;;;;;;;;;;;
2023/01/03 07:00:51;;;;;;;19.60;12.00;;;;;;;10.03;67.55;99968.27;234112;1200;138657;-67
2023/01/03 07:06:31;;;;;;;;;;;;;;;;;;;;;
2023/01/03 07:18:56;;;;;;;20.80;12.00;;;;;;;10.33;67.16;99979.20;234857;1197;139037;-68
2023/01/03 07:37:33;;;;;;;24.00;13.80;;;;;;;10.26;66.89;100006.97;234237;1200;138657;-66
2023/01/03 07:53:18;;;;;;;;;;;;;;;;;;;;;
2023/01/03 07:58:54;;;;;;;17.40;12.60;;;;;;;10.22;66.52;100025.05;234154;1200;139100;-65
2023/01/03 08:05:24;;;;;;;21.90;12.70;;;;;;;10.30;66.45;100034.48;234808;1197;139151;-63
2023/01/03 08:17:27;;;;;;;;;;;;;;;;;;;;;
2023/01/03 08:44:37;;;;;;;21.00;14.10;;;;;;;10.00;67.34;100072.30;234334;1196;139979;-71
2023/01/03 09:04:23;;;;;;;;;;;;;;;;;;;;;
2023/01/03 09:10:41;;;;;;;;;;;;;;;;;;;;;
2023/01/03 09:16:09;;;;;;;24.30;14.30;;;;;;;10.60;66.51;100071.81;234643;1196;140878;-68
2023/01/03 09:23:34;;;;;;;20.60;14.70;;;;;;;10.70;66.59;100074.20;234719;1198;138618;-68
2023/01/03 09:28:48;;;;;;;60.50;37.00;;;;;;;10.85;66.20;100068.36;233874;1200;140139;-67
2023/01/03 09:34:20;;;;;;;17.30;12.40;;;;;;;10.94;65.97;100069.67;234323;1199;139073;-67
2023/01/03 09:47:09;;;;;;;;;;;;;;;11.23;65.18;100071.34;233854;1202;139137;-67
2023/01/03 10:08:01;;;;;;;17.10;11.30;;;;;;;11.57;64.16;100062.02;234680;1197;140447;-68
2023/01/03 10:14:28;;;;;;;56.60;34.60;;;;;;;11.64;63.57;100069.16;234433;1199;138762;-68
2023/01/03 10:20:39;;;;;;;9.40;5.50;;;;;;;11.75;63.37;100068.23;234546;1196;139818;-69
2023/01/03 10:26:38;;;;;;;10.10;5.60;;;;;;;11.88;62.28;100066.59;234515;1196;138690;-66
2023/01/03 10:33:02;;;;;;;8.60;5.90;;;;;;;11.79;62.08;100071.25;234483;1196;139023;-67
2023/01/03 10:38:01;;;;;;;13.80;6.30;;;;;;;11.80;61.86;100073.66;234482;1196;139208;-67
2023/01/03 10:45:01;;;;;;;13.90;7.50;;;;;;;11.81;62.16;100070.11;234386;1196;139025;-65
2023/01/03 10:51:33;;;;;;;11.80;7.60;;;;;;;11.81;61.70;100073.25;234477;1199;140260;-68
2023/01/03 11:04:17;;;;;;;;;;;;;;;;;;;;;
2023/01/03 11:10:53;;;;;;;;;;;;;;;;;;;;;
2023/01/03 11:17:21;;;;;;;12.90;7.30;;;;;;;12.06;60.77;100071.32;234260;1200;139002;-66
2023/01/03 11:23:11;;;;;;;;;;;;;;;;;;;;;
2023/01/03 11:29:01;;;;;;;14.20;5.80;;;;;;;12.02;59.65;100060.47;234293;1198;138726;-70
2023/01/03 11:35:00;;;;;;;5.90;3.60;;;;;;;11.99;58.64;100057.45;234336;1199;138466;-73
2023/01/03 11:41:17;;;;;;;5.10;2.60;;;;;;;11.91;57.16;100053.07;234188;1198;139347;-65
2023/01/03 11:47:17;;;;;;;4.60;2.60;;;;;;;11.84;55.95;100051.61;234717;1196;138641;-68
2023/01/03 11:53:37;;;;;;;7.10;2.70;;;;;;;11.88;55.34;100053.94;234657;1196;138272;-68
2023/01/03 11:59:44;;;;;;;;;;;;;;;;;;;;;
2023/01/03 12:05:46;;;;;;;5.90;2.70;;;;;;;11.84;54.78;100045.23;234920;1195;138919;-71
2023/01/03 12:11:51;;;;;;;7.30;2.70;;;;;;;11.85;54.74;100043.77;234889;1193;139014;-68
2023/01/03 12:17:53;;;;;;;;;;;;;;;;;;;;;
2023/01/03 12:24:33;;;;;;;6.90;3.50;;;;;;;11.98;55.15;100042.22;234729;1196;138725;-66
2023/01/03 12:30:36;;;;;;;7.20;3.50;;;;;;;12.00;55.53;100035.50;234714;1197;139030;-68
2023/01/03 12:43:47;;;;;;;;;;;;;;;;;;;;;
2023/01/03 13:04:37;;;;;;;19.30;11.20;;;;;;;12.03;58.54;100039.27;234025;1196;138940;-66
2023/01/03 13:11:34;;;;;;;20.30;12.80;;;;;;;11.93;58.54;100038.55;234712;1196;139885;-66
2023/01/03 13:17:26;;;;;;;19.40;11.90;;;;;;;11.78;59.00;100038.92;234014;1194;139732;-72
2023/01/03 13:23:35;;;;;;;;;;;;;;;11.73;59.50;100038.48;234927;1195;138803;-68
2023/01/03 13:29:03;;;;;;;;;;;;;;;;;;;;;
2023/01/03 13:34:40;;;;;;;23.60;11.90;;;;;;;11.60;59.72;100041.63;234796;1198;139374;-69
2023/01/03 13:40:14;;;;;;;19.60;12.60;;;;;;;11.57;60.10;100035.39;234989;1193;138977;-65
2023/01/03 13:47:08;;;;;;;24.00;13.00;;;;;;;11.57;60.32;100036.80;234561;1195;139008;-69
2023/01/03 13:53:00;;;;;;;21.90;12.50;;;;;;;11.56;60.43;100045.36;234664;1196;139757;-70
2023/01/03 13:59:24;;;;;;;19.40;11.80;;;;;;;11.52;60.59;100047.86;234908;1193;139725;-73
2023/01/03 14:05:22;;;;;;;30.40;17.80;;;;;;;11.50;61.00;100048.66;234407;1196;140424;-71
2023/01/03 14:11:07;;;;;;;20.50;12.40;;;;;;;11.47;60.49;100053.64;234685;1196;139959;-67
2023/01/03 14:23:50;;;;;;;22.90;12.40;;;;;;;11.34;60.90;100074.19;234459;1195;139769;-68
2023/01/03 14:29:15;;;;;;;20.30;12.00;;;;;;;11.34;61.32;100078.98;234874;1193;139405;-69
2023/01/03 14:35:26;;;;;;;20.10;13.00;;;;;;;11.37;61.14;100077.92;234697;1196;140050;-68
2023/01/03 14:40:48;;;;;;;21.90;12.40;;;;;;;11.40;60.91;100081.52;234643;1193;139640;-66
2023/01/03 14:46:06;;;;;;;21.00;12.10;;;;;;;11.38;60.98;100074.33;234815;1196;139377;-68
2023/01/03 14:51:22;;;;;;;22.60;12.60;;;;;;;11.32;61.24;100075.51;234910;1195;139513;-67
2023/01/03 14:56:38;;;;;;;21.00;14.70;;;;;;;11.28;61.44;100077.13;234860;1194;139952;-69
2023/01/03 15:02:14;;;;;;;25.70;12.20;;;;;;;11.20;61.57;100077.69;234878;1194;139106;-71
2023/01/03 15:07:59;;;;;;;22.50;12.70;;;;;;;11.12;61.65;100086.43;234859;1193;139418;-72
2023/01/03 15:13:47;;;;;;;16.40;10.70;;;;;;;11.05;61.55;100092.09;234841;1193;139638;-71
2023/01/03 15:19:24;;;;;;;15.80;8.70;;;;;;;10.98;60.88;100090.64;234601;1194;139244;-72
2023/01/03 15:25:15;;;;;;;;;;;;;;;;;;;;;
2023/01/03 15:31:15;;;;;;;;;;;;;;;;;;;;;
2023/01/03 15:37:35;;;;;;;;;;;;;;;;;;;;;
2023/01/03 15:48:37;;;;;;;9.60;4.40;;;;;;;10.84;58.70;100126.60;234893;1195;139782;-73
2023/01/03 15:54:22;;;;;;;7.40;4.50;;;;;;;10.72;58.06;100141.70;234671;1196;138990;-71
2023/01/03 16:07:39;;;;;;;9.90;4.60;;;;;;;10.58;57.62;100168.97;234577;1195;139407;-73
2023/01/03 16:13:07;;;;;;;8.40;4.80;;;;;;;10.53;57.54;100173.23;234804;1193;138651;-68
2023/01/03 16:19:00;;;;;;;8.00;5.00;;;;;;;10.52;57.18;100178.30;234858;1196;139045;-67
2023/01/03 16:24:19;;;;;;;10.40;5.30;;;;;;;10.45;56.83;100186.38;234874;1194;138715;-69
2023/01/03 16:30:22;;;;;;;32.20;18.80;;;;;;;10.39;57.87;100196.05;234784;1195;140660;-72
2023/01/03 16:36:04;;;;;;;9.90;6.10;;;;;;;10.36;57.26;100197.59;234844;1193;139939;-68
2023/01/03 16:41:21;;;;;;;14.70;6.40;;;;;;;10.30;57.38;100199.27;234918;1193;139056;-65
2023/01/03 16:46:42;;;;;;;;;;;;;;;;;;;;;
2023/01/03 16:52:56;;;;;;;11.50;6.80;;;;;;;10.19;57.46;100196.33;234824;1195;139530;-67
2023/01/03 16:58:14;;;;;;;12.60;6.20;;;;;;;10.14;57.73;100203.06;234806;1194;139749;-72
2023/01/03 17:03:23;;;;;;;13.40;7.00;;;;;;;10.12;57.63;100201.59;234852;1196;140347;-69
2023/01/03 17:15:52;;;;;;;15.50;8.00;;;;;;;9.98;57.78;100206.94;234195;1199;139216;-77
2023/01/03 17:22:16;;;;;;;11.90;7.60;;;;;;;9.91;58.20;100207.04;234184;1198;139466;-71
2023/01/03 17:28:04;;;;;;;;;;;;;;;;;;;;;
2023/01/03 17:33:35;;;;;;;;;;;;;;;;;;;;;
2023/01/03 17:40:10;;;;;;;10.40;6.90;;;;;;;9.78;58.39;100213.77;234780;1195;139039;-72
2023/01/03 17:52:17;;;;;;;14.30;7.10;;;;;;;9.71;58.97;100219.88;235002;1195;138590;-68
2023/01/03 17:58:27;;;;;;;14.50;8.00;;;;;;;9.66;59.23;100225.92;234939;1193;139426;-68
2023/01/03 18:04:08;;;;;;;;;;;;;;;;;;;;;
2023/01/03 18:10:17;;;;;;;;;;;;;;;;;;;;;
2023/01/03 18:15:38;;;;;;;14.10;7.50;;;;;;;9.63;59.22;100229.75;234747;1195;139207;-67
2023/01/03 18:22:16;;;;;;;16.00;7.30;;;;;;;9.56;59.42;100226.70;234806;1195;138994;-73
2023/01/03 18:27:59;;;;;;;11.80;7.50;;;;;;;9.51;59.63;100232.57;234674;1196;139695;-73
2023/01/03 18:34:52;;;;;;;12.10;7.00;;;;;;;9.47;59.29;100243.34;234726;1194;139015;-69
2023/01/03 18:40:41;;;;;;;;;;;;;;;;;;;;;
2023/01/03 18:46:29;;;;;;;;;;;;;;;;;;;;;
2023/01/03 18:59:00;;;;;;;13.90;8.20;;;;;;;9.28;59.72;100250.97;234509;1198;138942;-67
2023/01/03 19:18:00;;;;;;;;;;;;;;;;;;;;;
2023/01/03 19:32:33;;;;;;;;;;;;;;;;;;;;;
2023/01/03 19:59:23;;;;;;;20.60;12.80;;;;;;;9.27;60.64;100269.23;234105;1200;138925;-68
2023/01/03 20:11:39;;;;;;;;;;;;;;;9.21;61.00;100278.83;234214;1195;138772;-68
2023/01/03 20:18:04;;;;;;;;;;;;;;;;;;;;;
2023/01/03 20:24:26;;;;;;;53.60;33.70;;;;;;;9.21;61.06;100272.08;234257;1195;138971;-72
2023/01/03 20:30:37;;;;;;;;;;;;;;;;;;;;;
2023/01/03 20:37:02;;;;;;;;;;;;;;;;;;;;;
2023/01/03 20:42:48;;;;;;;23.90;15.00;;;;;;;9.12;61.12;100289.61;234579;1194;139824;-68
2023/01/03 20:49:19;;;;;;;;;;;;;;;;;;;;;
2023/01/03 20:56:01;;;;;;;23.90;16.00;;;;;;;9.04;61.16;100291.83;234522;1196;140033;-69
2023/01/03 21:15:41;;;;;;;28.80;16.70;;;;;;;8.94;61.53;100289.19;233946;1202;139682;-68
2023/01/03 21:21:46;;;;;;;29.20;17.90;;;;;;;8.88;61.65;100284.28;234100;1200;139992;-67
2023/01/03 21:28:22;;;;;;;;;;;;;;;;;;;;;
2023/01/03 21:41:08;;;;;;;;;;;;;;;;;;;;;
2023/01/03 21:48:06;;;;;;;;;;;;;;;;;;;;;
2023/01/03 22:22:49;;;;;;;;;;;;;;;;;;;;;
2023/01/03 22:28:50;;;;;;;47.00;29.70;;;;;;;8.61;62.16;100326.41;234555;1196;138808;-69
2023/01/03 22:34:32;;;;;;;;;;;;;;;8.55;62.21;100326.96;234540;1195;139252;-69
2023/01/03 22:41:22;;;;;;;46.60;29.80;;;;;;;8.51;62.35;100332.22;234546;1198;125537;-69
2023/01/03 22:47:29;;;;;;;;;;;;;;;;;;;;;
2023/01/03 22:54:41;;;;;;;;;;;;;;;;;;;;;
2023/01/03 23:26:55;;;;;;;49.60;30.50;;;;;;;7.81;63.28;100319.20;234380;1195;138908;-68
2023/01/03 23:33:13;;;;;;;;;;;;;;;;;;;;;
2023/01/03 23:46:32;;;;;;;49.80;33.10;;;;;;;7.65;63.72;100324.95;234415;1201;139014;-68
2023/01/03 23:59:50;;;;;;;51.30;31.90;;;;;;;7.42;63.26;100329.16;234025;1198;138997;-68
